createdAt,value
2022-11-30T00:01:42.787Z,91.89
2022-11-30T00:04:11.356Z,92.32
2022-11-30T00:06:43.438Z,92.37
2022-11-30T00:09:12.015Z,92.36
2022-11-30T00:11:40.362Z,91.82
2022-11-30T00:14:08.977Z,91.73
2022-11-30T00:16:37.463Z,91.67
2022-11-30T00:19:07.264Z,91.56
2022-11-30T00:21:35.591Z,91.41
2022-11-30T00:24:04.026Z,91.53
2022-11-30T00:26:32.732Z,91.61
2022-11-30T00:29:01.231Z,91.73
2022-11-30T00:31:29.573Z,91.51
2022-11-30T00:33:58.213Z,91.38
2022-11-30T00:36:28.175Z,91.27
2022-11-30T00:38:57.378Z,91.03
2022-11-30T00:41:25.835Z,91.41
2022-11-30T00:43:54.188Z,91.20
2022-11-30T00:46:22.640Z,91.38
2022-11-30T00:48:51.124Z,91.44
2022-11-30T00:51:21.630Z,91.31
2022-11-30T00:53:51.416Z,91.25
2022-11-30T00:56:20.001Z,91.14
2022-11-30T00:58:48.568Z,90.41
2022-11-30T01:01:17.003Z,90.07
2022-11-30T01:03:45.795Z,90.27
2022-11-30T01:06:14.234Z,90.23
2022-11-30T01:08:42.703Z,90.98
2022-11-30T01:11:16.831Z,91.77
2022-11-30T01:13:45.293Z,92.32
2022-11-30T01:16:18.630Z,92.42
2022-11-30T01:18:48.453Z,93.05
2022-11-30T01:21:19.537Z,92.87
2022-11-30T01:23:48.772Z,92.36
2022-11-30T01:26:20.609Z,91.94
2022-11-30T01:28:52.904Z,92.20
2022-11-30T01:31:24.691Z,92.30
2022-11-30T01:33:55.537Z,92.21
2022-11-30T01:36:25.552Z,91.76
2022-11-30T01:38:56.395Z,91.80
2022-11-30T01:41:29.174Z,91.49
2022-11-30T01:43:59.714Z,91.63
2022-11-30T01:46:36.210Z,91.83
2022-11-30T01:49:19.330Z,91.54
2022-11-30T01:51:58.151Z,91.69
2022-11-30T01:54:31.221Z,91.69
2022-11-30T01:57:06.401Z,91.42
2022-11-30T01:59:34.784Z,91.48
2022-11-30T02:02:02.977Z,91.60
2022-11-30T02:04:34.244Z,91.34
2022-11-30T02:07:04.824Z,91.29
2022-11-30T02:09:37.233Z,90.87
2022-11-30T02:12:09.323Z,90.98
2022-11-30T02:14:43.683Z,91.18
2022-11-30T02:17:22.176Z,90.95
2022-11-30T02:20:36.832Z,90.95
2022-11-30T02:23:44.090Z,90.90
2022-11-30T02:26:35.482Z,91.37
2022-11-30T02:29:15.303Z,91.18
2022-11-30T02:31:56.390Z,91.12
2022-11-30T02:34:28.617Z,90.82
2022-11-30T02:36:58.803Z,90.62
2022-11-30T02:39:27.135Z,91.01
2022-11-30T02:41:55.364Z,90.87
2022-11-30T02:44:26.365Z,91.02
2022-11-30T02:47:13.470Z,90.96
2022-11-30T02:49:50.591Z,90.85
2022-11-30T02:52:20.925Z,90.67
2022-11-30T02:54:49.637Z,90.10
2022-11-30T02:57:18.008Z,89.92
2022-11-30T02:59:47.653Z,89.86
2022-11-30T03:02:15.921Z,90.25
2022-11-30T03:04:44.324Z,90.37
2022-11-30T03:07:12.722Z,90.24
2022-11-30T03:09:40.993Z,90.54
2022-11-30T03:12:09.334Z,91.12
2022-11-30T03:14:37.695Z,92.00
2022-11-30T03:17:07.540Z,92.18
2022-11-30T03:19:36.113Z,92.08
2022-11-30T03:22:04.381Z,92.41
2022-11-30T03:24:32.645Z,92.16
2022-11-30T03:27:00.879Z,93.71
2022-11-30T03:29:29.069Z,95.04
2022-11-30T03:31:57.304Z,95.09
2022-11-30T03:34:27.695Z,94.55
2022-11-30T03:36:56.365Z,93.87
2022-11-30T03:39:25.223Z,93.40
2022-11-30T03:41:53.742Z,93.20
2022-11-30T03:44:22.013Z,92.76
2022-11-30T03:46:50.452Z,92.35
2022-11-30T03:49:18.738Z,91.76
2022-11-30T03:51:48.318Z,91.79
2022-11-30T03:54:16.586Z,91.54
2022-11-30T03:56:44.804Z,91.55
2022-11-30T03:59:13.029Z,91.45
2022-11-30T04:01:41.965Z,91.12
2022-11-30T04:04:10.361Z,90.89
2022-11-30T04:06:38.578Z,91.10
2022-11-30T04:09:08.310Z,91.00
2022-11-30T04:11:36.930Z,91.01
2022-11-30T04:14:05.177Z,90.76
2022-11-30T04:16:33.741Z,90.67
2022-11-30T04:19:02.405Z,90.59
2022-11-30T04:21:30.823Z,90.21
2022-11-30T04:23:59.038Z,89.67
2022-11-30T04:26:28.724Z,89.48
2022-11-30T04:28:56.987Z,88.78
2022-11-30T04:31:25.338Z,87.64
2022-11-30T04:33:55.034Z,88.70
2022-11-30T04:36:23.449Z,89.17
2022-11-30T04:38:51.666Z,90.35
2022-11-30T04:41:19.910Z,90.19
2022-11-30T04:43:49.495Z,90.36
2022-11-30T04:46:17.786Z,89.80
2022-11-30T04:48:45.999Z,89.77
2022-11-30T04:51:14.263Z,89.57
2022-11-30T04:53:42.537Z,89.36
2022-11-30T04:56:12.962Z,89.74
2022-11-30T04:58:41.226Z,89.46
2022-11-30T05:01:10.894Z,89.33
2022-11-30T05:03:39.133Z,88.84
2022-11-30T05:06:07.853Z,88.27
2022-11-30T05:08:36.101Z,87.92
2022-11-30T05:11:04.390Z,87.72
2022-11-30T05:13:32.889Z,87.47
2022-11-30T05:16:01.168Z,87.19
2022-11-30T05:18:31.736Z,87.45
2022-11-30T05:21:00.130Z,87.55
2022-11-30T05:23:28.406Z,87.97
2022-11-30T05:25:56.800Z,87.56
2022-11-30T05:28:24.973Z,87.75
2022-11-30T05:30:53.148Z,88.31
2022-11-30T05:33:21.411Z,88.95
2022-11-30T05:35:51.000Z,89.25
2022-11-30T05:38:19.389Z,90.60
2022-11-30T05:40:47.791Z,91.68
2022-11-30T05:43:16.124Z,92.59
2022-11-30T05:45:44.330Z,92.63
2022-11-30T05:48:12.734Z,92.55
2022-11-30T05:50:40.933Z,93.02
2022-11-30T05:53:10.542Z,93.84
2022-11-30T05:55:39.243Z,95.20
2022-11-30T05:58:07.450Z,95.23
2022-11-30T06:00:35.639Z,94.92
2022-11-30T06:03:04.142Z,94.60
2022-11-30T06:05:35.576Z,94.24
2022-11-30T06:08:03.978Z,94.48
2022-11-30T06:10:33.518Z,93.85
2022-11-30T06:13:08.384Z,94.31
2022-11-30T06:15:37.902Z,94.04
2022-11-30T06:18:07.898Z,93.99
2022-11-30T06:20:36.516Z,93.98
2022-11-30T06:23:04.858Z,93.84
2022-11-30T06:25:34.685Z,93.33
2022-11-30T06:28:02.987Z,92.97
2022-11-30T06:30:31.301Z,93.45
2022-11-30T06:32:59.538Z,93.49
2022-11-30T06:35:27.866Z,93.54
2022-11-30T06:37:56.174Z,94.52
2022-11-30T06:40:24.552Z,94.90
2022-11-30T06:42:54.710Z,94.36
2022-11-30T06:45:22.915Z,93.86
2022-11-30T06:47:51.111Z,93.57
2022-11-30T06:50:19.638Z,93.69
2022-11-30T06:52:47.867Z,93.33
2022-11-30T06:55:16.285Z,93.21
2022-11-30T06:57:44.698Z,93.04
2022-11-30T07:00:16.380Z,92.95
2022-11-30T07:02:44.859Z,92.54
2022-11-30T07:05:13.050Z,92.30
2022-11-30T07:07:41.416Z,91.80
2022-11-30T07:10:13.760Z,91.63
2022-11-30T07:12:45.245Z,91.72
2022-11-30T07:15:14.880Z,91.76
2022-11-30T07:17:43.128Z,91.14
2022-11-30T07:20:11.812Z,91.21
2022-11-30T07:22:40.085Z,91.48
2022-11-30T07:25:27.651Z,90.99
2022-11-30T07:27:56.413Z,90.93
2022-11-30T07:30:26.099Z,91.15
2022-11-30T07:32:54.482Z,91.05
2022-11-30T07:35:22.933Z,90.99
2022-11-30T07:37:51.159Z,90.66
2022-11-30T07:40:19.457Z,90.54
2022-11-30T07:42:47.754Z,90.83
2022-11-30T07:45:16.162Z,91.26
2022-11-30T07:47:45.732Z,90.94
2022-11-30T07:50:13.978Z,90.60
2022-11-30T07:52:42.479Z,91.81
2022-11-30T07:55:11.149Z,91.96
2022-11-30T07:57:39.399Z,92.93
2022-11-30T08:00:10.258Z,93.30
2022-11-30T08:02:40.393Z,93.37
2022-11-30T08:05:12.148Z,92.91
2022-11-30T08:07:40.491Z,92.42
2022-11-30T08:10:10.717Z,92.47
2022-11-30T08:12:39.017Z,93.13
2022-11-30T08:15:19.762Z,93.94
2022-11-30T08:17:54.483Z,94.66
2022-11-30T08:20:24.284Z,94.50
2022-11-30T08:22:52.871Z,93.83
2022-11-30T08:25:21.106Z,94.05
2022-11-30T08:27:49.402Z,93.89
2022-11-30T08:30:18.220Z,93.89
2022-11-30T08:32:46.563Z,93.53
2022-11-30T08:35:14.984Z,93.46
2022-11-30T08:37:44.609Z,93.27
2022-11-30T08:40:13.689Z,93.21
2022-11-30T08:42:42.033Z,92.65
2022-11-30T08:45:11.502Z,93.21
2022-11-30T08:47:39.774Z,93.69
2022-11-30T08:50:09.307Z,93.80
2022-11-30T08:52:37.687Z,94.51
2022-11-30T08:55:09.592Z,94.03
2022-11-30T08:57:37.832Z,94.67
2022-11-30T09:00:08.150Z,94.49
2022-11-30T09:02:38.197Z,94.34
2022-11-30T09:05:07.375Z,94.40
2022-11-30T09:07:35.707Z,94.82
2022-11-30T09:10:04.180Z,94.32
2022-11-30T09:12:36.292Z,94.34
2022-11-30T09:15:05.472Z,94.28
2022-11-30T09:17:33.850Z,94.08
2022-11-30T09:20:02.714Z,93.90
2022-11-30T09:22:31.070Z,93.82
2022-11-30T09:24:59.379Z,93.72
2022-11-30T09:27:30.384Z,93.49
2022-11-30T09:30:00.174Z,93.42
2022-11-30T09:32:29.827Z,92.80
2022-11-30T09:34:58.212Z,92.64
2022-11-30T09:37:26.789Z,92.85
2022-11-30T09:39:55.014Z,93.17
2022-11-30T09:42:34.833Z,92.92
2022-11-30T09:45:15.023Z,92.91
2022-11-30T09:48:23.055Z,92.83
2022-11-30T09:50:53.480Z,92.61
2022-11-30T09:53:30.180Z,92.55
2022-11-30T09:56:00.282Z,92.47
2022-11-30T09:58:39.628Z,92.21
2022-11-30T10:01:18.748Z,91.96
2022-11-30T10:03:47.834Z,91.75
2022-11-30T10:06:25.573Z,92.05
2022-11-30T10:09:27.402Z,91.47
2022-11-30T10:12:05.635Z,91.65
2022-11-30T10:15:12.466Z,91.00
2022-11-30T10:17:54.253Z,91.28
2022-11-30T10:20:53.390Z,91.34
2022-11-30T10:23:38.064Z,91.40
2022-11-30T10:26:10.625Z,90.62
2022-11-30T10:28:52.443Z,91.02
2022-11-30T10:31:22.990Z,91.79
2022-11-30T10:33:55.700Z,90.88
2022-11-30T10:36:30.927Z,91.14
2022-11-30T10:39:03.823Z,90.64
2022-11-30T10:41:43.166Z,90.93
2022-11-30T10:44:17.045Z,91.84
2022-11-30T10:46:58.384Z,91.95
2022-11-30T10:49:30.764Z,92.12
2022-11-30T10:52:04.720Z,92.48
2022-11-30T10:54:33.500Z,91.84
2022-11-30T10:57:05.600Z,91.11
2022-11-30T10:59:42.467Z,90.79
2022-11-30T11:02:42.705Z,90.56
2022-11-30T11:05:20.194Z,90.96
2022-11-30T11:08:02.737Z,91.65
2022-11-30T11:10:37.728Z,91.79
2022-11-30T11:13:06.621Z,90.82
2022-11-30T11:15:36.357Z,89.92
2022-11-30T11:18:25.675Z,89.14
2022-11-30T11:21:07.139Z,88.56
2022-11-30T11:23:39.571Z,88.66
2022-11-30T11:26:17.306Z,88.43
2022-11-30T11:28:49.939Z,88.20
2022-11-30T11:31:26.380Z,87.80
2022-11-30T11:33:55.696Z,87.46
2022-11-30T11:36:36.792Z,87.22
2022-11-30T11:39:26.700Z,86.63
2022-11-30T11:41:55.578Z,87.18
2022-11-30T11:44:28.054Z,87.11
2022-11-30T11:46:59.224Z,87.11
2022-11-30T11:49:30.237Z,86.34
2022-11-30T11:52:06.502Z,85.58
2022-11-30T11:54:40.902Z,85.65
2022-11-30T11:57:14.259Z,86.00
2022-11-30T11:59:51.939Z,85.00
2022-11-30T12:02:28.937Z,84.01
2022-11-30T12:05:00.728Z,83.44
2022-11-30T12:07:36.657Z,82.61
2022-11-30T12:10:50.474Z,82.16
2022-11-30T12:13:16.412Z,79.89
2022-11-30T12:16:00.198Z,79.23
2022-11-30T12:18:37.155Z,77.60
2022-11-30T12:21:11.868Z,76.60
2022-11-30T12:24:21.860Z,76.12
2022-11-30T12:26:56.800Z,75.70
2022-11-30T12:29:27.209Z,75.44
2022-11-30T12:32:18.168Z,74.10
2022-11-30T12:35:05.035Z,72.14
2022-11-30T12:37:47.714Z,72.33
2022-11-30T12:40:32.856Z,73.27
2022-11-30T12:43:16.298Z,74.52
2022-11-30T12:45:46.368Z,74.87
2022-11-30T12:48:29.650Z,75.65
2022-11-30T12:51:16.781Z,75.45
2022-11-30T12:53:53.437Z,75.34
2022-11-30T12:56:36.091Z,74.62
2022-11-30T12:59:17.825Z,73.20
2022-11-30T13:02:05.646Z,72.92
2022-11-30T13:04:43.347Z,73.02
2022-11-30T13:07:23.165Z,73.19
2022-11-30T13:09:57.442Z,71.72
2022-11-30T13:12:35.937Z,72.95
2022-11-30T13:15:15.864Z,73.31
2022-11-30T13:17:45.363Z,73.89
2022-11-30T13:20:23.356Z,73.59
2022-11-30T13:22:57.698Z,73.53
2022-11-30T13:26:06.433Z,72.76
2022-11-30T13:28:33.298Z,72.40
2022-11-30T13:31:07.195Z,72.12
2022-11-30T13:33:45.058Z,71.83
2022-11-30T13:36:32.266Z,72.03
2022-11-30T13:39:28.855Z,72.24
2022-11-30T13:42:34.306Z,72.72
2022-11-30T13:45:33.286Z,72.44
2022-11-30T13:48:20.734Z,72.00
2022-11-30T13:50:50.379Z,71.40
2022-11-30T13:53:34.059Z,70.66
2022-11-30T13:56:06.626Z,70.23
2022-11-30T13:58:36.537Z,69.32
2022-11-30T14:01:26.176Z,68.85
2022-11-30T14:04:32.999Z,68.86
2022-11-30T14:07:01.674Z,69.04
2022-11-30T14:10:00.346Z,69.13
2022-11-30T14:13:03.321Z,69.54
2022-11-30T14:15:56.266Z,69.49
2022-11-30T14:18:40.320Z,69.99
2022-11-30T14:21:21.215Z,70.93
2022-11-30T14:23:57.026Z,71.16
2022-11-30T14:26:34.154Z,71.42
2022-11-30T14:29:12.126Z,71.71
2022-11-30T14:31:50.986Z,71.95
2022-11-30T14:34:24.719Z,72.04
2022-11-30T14:36:57.705Z,72.50
2022-11-30T14:39:29.662Z,72.58
2022-11-30T14:41:57.950Z,72.84
2022-11-30T14:44:26.283Z,72.86
2022-11-30T14:46:54.614Z,72.89
2022-11-30T14:49:25.649Z,73.03
2022-11-30T14:52:02.006Z,73.05
2022-11-30T14:54:51.050Z,72.95
2022-11-30T14:57:30.468Z,73.54
2022-11-30T14:59:58.898Z,73.17
2022-11-30T15:02:34.212Z,73.20
2022-11-30T15:05:05.233Z,73.57
2022-11-30T15:07:34.145Z,73.55
2022-11-30T15:10:06.876Z,73.05
2022-11-30T15:12:36.495Z,73.28
2022-11-30T15:15:09.089Z,72.96
2022-11-30T15:17:52.175Z,73.20
2022-11-30T15:20:29.752Z,73.45
2022-11-30T15:23:01.802Z,73.54
2022-11-30T15:25:41.486Z,73.59
2022-11-30T15:28:15.041Z,73.63
2022-11-30T15:30:45.909Z,73.69
2022-11-30T15:33:20.269Z,73.66
2022-11-30T15:36:18.680Z,73.49
2022-11-30T15:38:43.353Z,74.06
2022-11-30T15:41:20.220Z,73.82
2022-11-30T15:43:54.229Z,74.02
2022-11-30T15:46:32.835Z,73.94
2022-11-30T15:49:18.759Z,74.30
2022-11-30T15:52:00.536Z,74.44
2022-11-30T15:54:49.378Z,74.53
2022-11-30T15:57:18.679Z,74.78
2022-11-30T16:00:07.374Z,75.24
2022-11-30T16:02:38.517Z,75.03
2022-11-30T16:05:26.850Z,75.16
2022-11-30T16:08:00.039Z,75.55
2022-11-30T16:10:34.982Z,75.71
2022-11-30T16:13:04.224Z,75.64
2022-11-30T16:15:36.002Z,75.91
2022-11-30T16:18:17.782Z,75.88
2022-11-30T16:20:49.342Z,76.42
2022-11-30T16:23:19.974Z,76.58
2022-11-30T16:25:50.776Z,76.71
2022-11-30T16:28:20.141Z,76.46
2022-11-30T16:30:49.433Z,76.62
2022-11-30T16:33:19.929Z,76.72
2022-11-30T16:35:55.979Z,76.59
2022-11-30T16:38:26.263Z,76.88
2022-11-30T16:40:55.731Z,77.13
2022-11-30T16:43:26.123Z,76.94
2022-11-30T16:45:54.534Z,77.08
2022-11-30T16:48:22.806Z,77.18
2022-11-30T16:50:51.231Z,77.01
2022-11-30T16:53:19.542Z,77.81
2022-11-30T16:55:49.270Z,79.83
2022-11-30T16:58:17.714Z,82.09
2022-11-30T17:00:46.017Z,82.88
2022-11-30T17:03:22.384Z,83.92
2022-11-30T17:05:51.046Z,84.13
2022-11-30T17:08:19.364Z,84.06
2022-11-30T17:10:53.088Z,83.73
2022-11-30T17:13:22.223Z,83.62
2022-11-30T17:15:51.228Z,83.28
2022-11-30T17:18:19.817Z,83.15
2022-11-30T17:20:48.078Z,83.37
2022-11-30T17:23:16.344Z,82.79
2022-11-30T17:25:44.761Z,82.81
2022-11-30T17:28:14.353Z,82.87
2022-11-30T17:30:42.726Z,82.72
2022-11-30T17:33:11.102Z,82.59
2022-11-30T17:35:40.192Z,82.37
2022-11-30T17:38:08.664Z,82.11
2022-11-30T17:40:37.092Z,81.80
2022-11-30T17:43:05.348Z,81.46
2022-11-30T17:45:35.201Z,81.07
2022-11-30T17:48:03.545Z,81.20
2022-11-30T17:50:31.853Z,80.85
2022-11-30T17:53:00.182Z,80.88
2022-11-30T17:55:28.470Z,80.50
2022-11-30T17:57:56.768Z,80.76
2022-11-30T18:00:26.333Z,80.93
2022-11-30T18:02:56.073Z,80.57
2022-11-30T18:05:24.409Z,80.58
2022-11-30T18:07:52.733Z,80.18
2022-11-30T18:10:21.048Z,80.39
2022-11-30T18:12:49.363Z,80.45
2022-11-30T18:15:18.042Z,79.96
2022-11-30T18:17:46.334Z,80.03
2022-11-30T18:20:16.385Z,80.07
2022-11-30T18:22:45.187Z,80.11
2022-11-30T18:25:15.503Z,79.96
2022-11-30T18:27:44.447Z,79.85
2022-11-30T18:30:13.835Z,79.70
2022-11-30T18:32:42.220Z,79.79
2022-11-30T18:35:11.355Z,80.04
2022-11-30T18:37:40.986Z,80.36
2022-11-30T18:40:10.870Z,80.24
2022-11-30T18:42:39.199Z,80.38
2022-11-30T18:45:09.069Z,80.32
2022-11-30T18:47:37.332Z,80.53
2022-11-30T18:50:06.979Z,80.49
2022-11-30T18:52:35.256Z,80.63
2022-11-30T18:55:05.105Z,80.35
2022-11-30T18:57:33.497Z,80.53
2022-11-30T19:00:01.798Z,80.64
2022-11-30T19:02:30.319Z,80.55
2022-11-30T19:04:58.750Z,80.61
2022-11-30T19:07:27.151Z,80.78
2022-11-30T19:09:55.701Z,80.75
2022-11-30T19:12:25.525Z,80.49
2022-11-30T19:14:54.199Z,80.74
2022-11-30T19:17:22.772Z,80.92
2022-11-30T19:19:51.142Z,80.75
2022-11-30T19:22:19.441Z,80.84
2022-11-30T19:24:48.254Z,81.14
2022-11-30T19:27:16.710Z,81.18
2022-11-30T19:29:46.430Z,81.45
2022-11-30T19:32:14.878Z,81.16
2022-11-30T19:34:43.098Z,81.45
2022-11-30T19:37:11.386Z,81.34
2022-11-30T19:39:39.726Z,81.35
2022-11-30T19:42:08.037Z,81.35
2022-11-30T19:44:36.497Z,81.65
2022-11-30T19:47:06.279Z,81.41
2022-11-30T19:49:34.613Z,81.64
2022-11-30T19:52:03.315Z,81.92
2022-11-30T19:54:31.710Z,82.08
2022-11-30T19:56:59.947Z,81.97
2022-11-30T19:59:28.357Z,82.14
2022-11-30T20:01:56.721Z,82.24
2022-11-30T20:04:26.562Z,82.12
2022-11-30T20:06:55.105Z,82.81
2022-11-30T20:09:23.746Z,82.44
2022-11-30T20:11:54.750Z,82.51
2022-11-30T20:14:23.310Z,82.69
2022-11-30T20:16:52.987Z,83.24
2022-11-30T20:19:21.375Z,82.93
2022-11-30T20:21:51.229Z,83.40
2022-11-30T20:24:19.803Z,82.98
2022-11-30T20:26:48.680Z,83.15
2022-11-30T20:29:19.000Z,83.11
2022-11-30T20:31:49.305Z,83.29
2022-11-30T20:34:18.464Z,83.04
2022-11-30T20:36:47.016Z,82.84
2022-11-30T20:39:17.261Z,82.67
2022-11-30T20:41:45.815Z,82.83
2022-11-30T20:44:16.130Z,82.45
2022-11-30T20:46:45.091Z,82.58
2022-11-30T20:49:19.050Z,82.66
2022-11-30T20:51:47.749Z,82.68
2022-11-30T20:54:18.099Z,82.34
2022-11-30T20:56:50.889Z,82.49
2022-11-30T20:59:23.839Z,82.48
2022-11-30T21:01:52.329Z,82.26
2022-11-30T21:04:21.176Z,82.60
2022-11-30T21:06:49.648Z,82.53
2022-11-30T21:09:20.812Z,82.36
2022-11-30T21:11:50.224Z,82.35
2022-11-30T21:14:18.759Z,82.28
2022-11-30T21:16:47.163Z,82.23
2022-11-30T21:19:16.793Z,82.44
2022-11-30T21:21:45.118Z,82.17
2022-11-30T21:24:13.714Z,82.35
2022-11-30T21:26:44.277Z,81.80
2022-11-30T21:29:15.208Z,81.54
2022-11-30T21:31:43.979Z,81.49
2022-11-30T21:34:12.410Z,81.79
2022-11-30T21:36:40.954Z,81.56
2022-11-30T21:39:09.849Z,81.46
2022-11-30T21:41:40.643Z,81.13
2022-11-30T21:44:15.645Z,80.97
2022-11-30T21:46:45.554Z,81.08
2022-11-30T21:49:14.592Z,81.39
2022-11-30T21:51:43.848Z,81.12
2022-11-30T21:54:14.016Z,80.85
2022-11-30T21:56:44.696Z,81.42
2022-11-30T21:59:15.502Z,81.11
2022-11-30T22:01:45.465Z,81.25
2022-11-30T22:04:15.556Z,80.78
2022-11-30T22:06:44.674Z,81.11
2022-11-30T22:09:18.351Z,80.91
2022-11-30T22:11:47.079Z,81.16
2022-11-30T22:14:18.036Z,80.96
2022-11-30T22:16:47.103Z,81.22
2022-11-30T22:19:15.682Z,80.92
2022-11-30T22:21:49.769Z,80.67
2022-11-30T22:24:18.686Z,80.53
2022-11-30T22:26:48.992Z,80.41
2022-11-30T22:29:22.233Z,80.09
2022-11-30T22:31:53.104Z,80.26
2022-11-30T22:34:21.975Z,80.02
2022-11-30T22:36:50.338Z,80.26
2022-11-30T22:39:21.598Z,80.01
2022-11-30T22:41:55.548Z,80.26
2022-11-30T22:44:26.439Z,80.40
2022-11-30T22:46:54.800Z,80.04
2022-11-30T22:49:23.193Z,80.18
2022-11-30T22:51:52.004Z,80.18
2022-11-30T22:54:20.543Z,80.32
2022-11-30T22:56:48.910Z,79.99
2022-11-30T22:59:17.590Z,80.54
2022-11-30T23:01:48.758Z,80.17
2022-11-30T23:04:19.712Z,80.59
2022-11-30T23:06:49.611Z,80.74
2022-11-30T23:09:21.306Z,80.59
2022-11-30T23:11:50.501Z,80.60
2022-11-30T23:14:19.176Z,81.11
2022-11-30T23:16:49.074Z,81.01
2022-11-30T23:19:18.196Z,81.21
2022-11-30T23:21:46.533Z,81.20
2022-11-30T23:24:17.318Z,81.30
2022-11-30T23:26:46.414Z,81.27
2022-11-30T23:29:17.171Z,81.03
2022-11-30T23:31:46.391Z,81.35
2022-11-30T23:34:18.411Z,81.39
2022-11-30T23:36:47.173Z,81.66
2022-11-30T23:39:18.416Z,81.37
2022-11-30T23:41:46.879Z,81.37
2022-11-30T23:44:15.250Z,81.17
2022-11-30T23:46:43.740Z,81.57
2022-11-30T23:49:15.276Z,81.42
2022-11-30T23:51:43.757Z,81.74
2022-11-30T23:54:12.117Z,81.62
2022-11-30T23:56:40.322Z,81.60
2022-11-30T23:59:08.573Z,81.56
